David Morris

Olheiro - DC United
3 Abr 2027
Sábado
Processo

Personalidade

Adaptabilidade (7) Ambição (2) Controvérsia (10) Lealdade (3) Pressão (7) Profissionalismo (12) Espírito Esportivo (9) Temperamento (7)

Perfil

Estilo de Treinamento Democrático
Licença Continental C
Determinação 13
Gestão de Pessoas 8
Motivação 6
Disciplina 7
Satisfação no Trabalho
50%
Fadiga
0%
Função Olheiro
Salário 53.3K p/s
Contrato 14.03.2028

Desempenho

Comportamento Normal
Eficácia do Treinamento
21%
Desenvolvimento do Jogador
40%
Prevenção de Lesões
40%
Implementação Tática
20%

Eventos Recentes

Avaliou um jogador agora
Participou de uma reunião de recrutamento agora
Recomendou um alvo de transferência agora
Apresentou um dossiê à direção agora
Avaliou um jogador 7d atrás
Avaliou um jogador 7d atrás
Avaliou um jogador 7d atrás
Avaliou um jogador 7d atrás

Monitorando agora

196
Jogador Clube Status Habilidade Confiança Observado Última observação Último voto
Luke Baartman Chippa United Ativo 97 / 113 40% 6 02.04.2027 -
Sindre Walle Egeli Tottenham Ativo 130 / 131 40% 2 02.04.2027 -
Mathys Tel Tottenham Ativo 141 / 152 40% 1 02.04.2027 -
Alexey Batrakov Galatasaray Ativo 138 / 154 40% 4 30.03.2027 -
Rocco Vata Watford Ativo 122 / 130 40% 2 30.03.2027 -
Asanele Shibe Inter Allies Ativo 70 / 82 40% 1 30.03.2027 -
Harry Clarke Preston Perdido 131 / 129 40% 3 29.03.2027 -
Joe Gelhardt Hull City Perdido 135 / 134 40% 1 29.03.2027 -
Largie Ramazani Leeds United Ativo 139 / 133 40% 1 29.03.2027 -
Will Lankshear Middlesbrough Ativo 121 / 133 40% 3 28.03.2027 -
Roberto Iliev Slavia Sofia Ativo 97 / 106 40% 1 28.03.2027 -
Godbless Ayeke New Edubiase United Ativo 75 / 76 40% 2 26.03.2027 -
David Kalokoh Ajax Ativo 115 / 125 40% 1 26.03.2027 -
Matvii Ponomarenko Dynamo Kyiv Ativo 115 / 128 40% 1 26.03.2027 -
Rayan Bournemouth Ativo 138 / 136 40% 3 25.03.2027 -
Mateus Mané Manchester United Ativo 131 / 139 40% 1 25.03.2027 -
Ethan Galbraith Swansea City Ativo 131 / 139 40% 3 24.03.2027 -
Ousmane Diomande Nottingham Forest Ativo 152 / 148 40% 1 24.03.2027 -
Florentino Luís Ipswich Town Ativo 142 / 134 40% 1 22.03.2027 -
Luke McNally Bristol City Ativo 131 / 134 40% 1 22.03.2027 -
Alfie Doughty Millwall Ativo 129 / 129 40% 2 21.03.2027 -
Juanlu Bournemouth Ativo 145 / 153 40% 1 21.03.2027 -
Leif Davis Ipswich Town Ativo 136 / 141 40% 1 21.03.2027 -
Leo Castledine Middlesbrough Ativo 131 / 129 40% 1 21.03.2027 -
Arian Allen Stockport County Ativo 77 / 86 40% 1 19.03.2027 -
Noah Sadiki Sunderland Ativo 146 / 150 40% 2 16.03.2027 -
Ryan Sessegnon Fulham Ativo 148 / 148 40% 1 16.03.2027 -
Aaron Hickey Brentford Ativo 143 / 151 40% 1 16.03.2027 -
Tristan Crama Millwall Ativo 124 / 126 40% 1 16.03.2027 -
Michael Baidoo Plymouth Argyle Ativo 129 / 133 40% 1 16.03.2027 -
Oumar Camara Vitoria Guimaraes Ativo 123 / 135 40% 3 15.03.2027 -
Jonathan Acquah WAFA Ativo 77 / 93 40% 3 15.03.2027 -
Ethan Pye Stockport County Ativo 119 / 121 40% 2 14.03.2027 -
Issa Kaboré Wrexham Ativo 134 / 137 40% 1 14.03.2027 -
Nathan Moriah-Welsh Mansfield Town Ativo 110 / 117 40% 2 12.03.2027 -
Jonathan Varane Queens Park Rangers Ativo 126 / 123 40% 1 12.03.2027 -
Nobel Mendy Hull City Ativo 134 / 135 40% 2 10.03.2027 -
Darlin Yongwa Norwich City Ativo 128 / 127 40% 1 10.03.2027 -
André Wolverhampton Ativo 148 / 139 40% 1 10.03.2027 -
Sayed Abu Farchi Maccabi Tel Aviv Ativo 116 / 127 40% 3 09.03.2027 -
Dennis Cirkin Queens Park Rangers Ativo 129 / 134 40% 1 09.03.2027 -
Gabriel Gudmundsson Leeds United Ativo 146 / 144 40% 1 09.03.2027 -
Max Conway Bolton Wanderers Ativo 116 / 116 40% 1 09.03.2027 -
Serge Daura Gazelle Garoua Ativo 96 / 97 40% 1 09.03.2027 -
Yannik Wagner Heidenheim Ativo 99 / 113 40% 1 09.03.2027 -
Terry Devlin Portsmouth Ativo 119 / 118 40% 2 06.03.2027 -
Lloyd Jones Charlton Athletic Perdido 126 / 131 40% 1 06.03.2027 -
Matthew Targett Hull City Perdido 129 / 132 40% 1 06.03.2027 -
Japhet Tanganga Sheffield United Perdido 129 / 137 40% 1 06.03.2027 -
Kayne Ramsay Charlton Athletic Ativo 124 / 120 40% 1 05.03.2027 -
Teden Mengi Luton Town Ativo 125 / 130 40% 1 05.03.2027 -
Tiago Pucciarelli FK Senica Ativo 100 / 108 40% 2 04.03.2027 -
Dramane Kamagaté USM Alger Ativo 111 / 98 40% 1 04.03.2027 -
Adam Wharton Crystal Palace Ativo 147 / 148 40% 1 03.03.2027 -
Alex Scott Bournemouth Ativo 152 / 149 40% 1 03.03.2027 -
Michael Noumon Heart of Lions Ativo 80 / 78 40% 3 28.02.2027 -
Ryan Oné Sheffield United Ativo 110 / 122 40% 2 27.02.2027 -
Abubakar Garba Nasarawa United Ativo 92 / 95 40% 1 27.02.2027 -
Dani Ángel Crawley Town Ativo 95 / 95 40% 2 25.02.2027 -
Thomas Waddingham Portsmouth Ativo 103 / 111 40% 1 25.02.2027 -
Roger Hinojo Espanyol Ativo 111 / 120 40% 1 24.02.2027 -
Brad Hills Stockport County Ativo 120 / 128 40% 1 24.02.2027 -
Joe Rankin-Costello Charlton Athletic Ativo 121 / 111 40% 1 24.02.2027 -
Uriël Van Aalst Willem II Ativo 107 / 111 40% 1 23.02.2027 -
Sonny Finch Grimsby Town Ativo 85 / 93 40% 2 22.02.2027 -
Sifiso Dala Platinum Stars Ativo 89 / 85 40% 2 21.02.2027 -
Ben Ahmed Kohili Paradou Ativo 102 / 108 40% 1 20.02.2027 -
Ivan Sorokin Spartak Moscow Ativo 74 / 84 40% 1 20.02.2027 -
Darlvin Yeboah Bechem United Ativo 77 / 81 40% 1 20.02.2027 -
Earl Edwards Jr. San Jose Earthquakes Ativo 105 / 101 83% 1 15.02.2027 Aprovar
Matvii Burenko Vorskla Ativo 79 / 89 40% 1 14.02.2027 -
Ibrahim Tarek Masr El Makasa Ativo 122 / 121 40% 2 13.02.2027 -
Malik Mothersille Stockport County Rejeitado 112 / 110 40% 4 13.02.2027 Rejeitar
Ronaldo Rostov Rejeitado 125 / 131 40% 1 13.02.2027 Mais informações
Evidence Makgopa Orlando Pirates Ativo 120 / 109 40% 8 11.02.2027 -
Kwame Opoku Asante Kotoko Ativo 99 / 98 40% 6 11.02.2027 -
Mees Rijks Bristol Rovers Ativo 111 / 117 40% 3 11.02.2027 -
Lee Bonis Oxford United Ativo 104 / 104 40% 2 10.02.2027 -
Niall Ennis Blackpool Ativo 116 / 118 40% 2 10.02.2027 -
Kane Drummond Oldham Athletic Ativo 97 / 91 40% 1 10.02.2027 -
Liam Thompson Mansfield Town Ativo 114 / 116 40% 2 09.02.2027 -
Johnly Yfeko Exeter City Ativo 107 / 106 40% 2 09.02.2027 -
Andrei Coubiş Lincoln City Ativo 112 / 120 40% 1 09.02.2027 -
Brayan León Mamelodi Sundowns Ativo 122 / 106 40% 5 08.02.2027 -
Xavier Simons Bolton Wanderers Rejeitado 119 / 123 40% 4 08.02.2027 Rejeitar
Fabrizio Cavegn Bristol Rovers Ativo 110 / 108 40% 2 08.02.2027 -
Carlos Paraco Metalist Ativo 114 / 106 40% 1 08.02.2027 -
Max Cleworth Wrexham Ativo 124 / 116 40% 1 08.02.2027 -
Jack Currie Oxford United Ativo 121 / 118 40% 3 06.02.2027 -
Etiosa Ighodaro Kaizer Chiefs Ativo 118 / 116 40% 4 06.02.2027 -
Iwan Morgan Grimsby Town Rejeitado 108 / 111 40% 2 06.02.2027 Mais informações
Lewis Bate Stockport County Ativo 122 / 117 40% 1 06.02.2027 -
Arsen Adamov Akhmat Grozny Ativo 123 / 124 40% 1 06.02.2027 -
Wandile Duba Bidvest Wits Ativo 107 / 105 40% 5 04.02.2027 -
Tamerlan Musaev CSKA Moscow Ativo 120 / 114 40% 5 04.02.2027 -
Conrad Wallem Valerenga Ativo 125 / 118 40% 4 04.02.2027 -
Marlon Gomes Shakhtar Ativo 137 / 130 40% 2 04.02.2027 -
Harry Leonard Peterborough United Rejeitado 109 / 106 40% 3 04.02.2027 Rejeitar
Rushwin Dortley Kaizer Chiefs Ativo 110 / 117 40% 1 04.02.2027 -
Lewis McCann Fleetwood Town Ativo 98 / 100 40% 9 03.02.2027 -
Bojan Radulović Huddersfield Town Ativo 118 / 112 40% 2 03.02.2027 -
Danyil Alefirenko Chornomorets Ativo 111 / 111 40% 2 03.02.2027 -
Charlie Webster Burton Albion Ativo 111 / 107 40% 2 01.02.2027 -
Kelly Saravanan Salford City Rejeitado 111 / 115 40% 3 01.02.2027 Rejeitar
Brian Figueroa Morelia Ativo 110 / 112 40% 1 01.02.2027 -
Harvey Blair Portsmouth Ativo 113 / 120 40% 4 29.01.2027 -
Goodman Mosele Chippa United Ativo 112 / 113 40% 1 29.01.2027 -
Ben Wiles Milton Keynes Dons Ativo 111 / 104 40% 2 28.01.2027 -
Helinho Toluca Ativo 133 / 129 40% 1 28.01.2027 -
Luther Zwane Platinum Stars Ativo 99 / 98 40% 6 26.01.2027 -
Oswin Appollis Orlando Pirates Ativo 125 / 116 40% 2 24.01.2027 -
Fraser Murray Wigan Athletic Ativo 115 / 120 40% 1 24.01.2027 -
Louis Appéré Cambridge United Ativo 101 / 96 40% 3 23.01.2027 -
Ali Soliman Masr El Makasa Ativo 123 / 135 40% 5 23.01.2027 -
Itumeleng Tau Ajax Cape Town Ativo 112 / 120 40% 3 23.01.2027 -
Seidu Basit Ashanti Gold Ativo 90 / 95 40% 2 23.01.2027 -
Amos Inusah Wa All Stars Ativo 109 / 118 40% 4 19.01.2027 -
Dale Taylor Blackpool Ativo 111 / 112 40% 2 19.01.2027 -
Tyrese Shade Burton Albion Ativo 104 / 106 40% 8 18.01.2027 -
Fábio Tavares Newport County Ativo 102 / 100 40% 1 17.01.2027 -
Luke Thomas Leicester City Ativo 128 / 120 40% 2 14.01.2027 -
Sinclair Armstrong Bristol City Ativo 114 / 125 40% 1 12.01.2027 -
Abu Kamara Portsmouth Ativo 118 / 123 40% 1 09.01.2027 -
Calum Kavanagh Oldham Athletic Ativo 93 / 103 40% 1 09.01.2027 -
Zak Swanson Doncaster Rovers Ativo 114 / 121 40% 2 04.01.2027 -
Georgie Gent Barnsley Ativo 113 / 107 40% 1 04.01.2027 -
Daniel Kyerewaa Reading Ativo 116 / 116 40% 3 03.01.2027 -
Ethan Williams Peterborough United Ativo 110 / 119 40% 1 02.01.2027 -
Brendan Wiredu Plymouth Argyle Ativo 111 / 108 40% 1 02.01.2027 -
Xavier Amaechi Plymouth Argyle Ativo 107 / 102 40% 3 01.01.2027 -
Akinkunmi Amoo Ismaily Ativo 124 / 109 40% 1 30.12.2026 -
Archie Collins Peterborough United Ativo 110 / 116 40% 1 29.12.2026 -
Alex Lowry Wycombe Wanderers Ativo 111 / 112 40% 1 28.12.2026 -
Stephen Amankona Aduana Stars Ativo 94 / 91 40% 2 25.12.2026 -
Rok Zajc NK Domzale Ativo 121 / 118 40% 3 23.12.2026 -
Solly Khunyedi Bloemfontein Celtic Ativo 104 / 110 40% 6 23.12.2026 -
Ole Romeny Oxford United Ativo 111 / 105 40% 1 22.12.2026 -
Franko Kovačević Ferencvaros Ativo 118 / 115 40% 4 20.12.2026 -
José Barreto Fehervar Ativo 116 / 113 40% 3 20.12.2026 -
Keagan Hlatshwayo SuperSport United Ativo 123 / 113 40% 2 20.12.2026 -
Alex Luna Instituto Ativo 131 / 129 40% 1 20.12.2026 -
Nicolás Cordero Aldosivi Ativo 114 / 120 40% 2 15.12.2026 -
Kauã Elias Shakhtar Ativo 132 / 129 40% 1 13.12.2026 -
Kyreece Lisbie Colchester United Ativo 110 / 110 40% 1 12.12.2026 -
Brayan Gil Baltika Ativo 124 / 115 40% 1 09.12.2026 -
Matej Trusa DAC Dunajska Streda Ativo 117 / 112 40% 2 03.12.2026 -
Luca Connell Barnsley Ativo 115 / 119 40% 2 03.12.2026 -
Alexander Díaz Deportivo Riestra Ativo 119 / 117 40% 1 03.12.2026 -
Kein Sato FC Tokyo Ativo 127 / 122 40% 7 01.12.2026 -
Miro Dinamo Makhachkala Ativo 112 / 119 40% 1 30.11.2026 -
Antonio Galeano Remo Stars Ativo 117 / 125 40% 1 30.11.2026 -
Thabang Matuludi Polokwane City Ativo 103 / 108 40% 2 28.11.2026 -
Vitalii Dakhnovskyi Bukovyna Ativo 108 / 112 40% 1 28.11.2026 -
Andrei Cordea CFR Cluj Ativo 125 / 117 40% 1 28.11.2026 -
Jay Matete Milton Keynes Dons Ativo 109 / 104 40% 1 27.11.2026 -
Josip Mitrović Slaven Belupo Ativo 120 / 111 40% 1 27.11.2026 -
Ştefan Baiaram Universitatea Craiova Ativo 126 / 119 40% 2 26.11.2026 -
Assad Al Hamlawi Universitatea Craiova Ativo 121 / 115 40% 1 24.11.2026 -
Kenan Dervišagić Floriana Ativo 99 / 94 40% 3 22.11.2026 -
Ciprian Coman Pandurii Ativo 114 / 126 40% 3 17.11.2026 -
Mfundo Vilakazi Kaizer Chiefs Ativo 119 / 124 40% 1 17.11.2026 -
Kanya Fujimoto Birmingham Ativo 119 / 115 40% 1 17.11.2026 -
Ola Brynhildsen Bodo/Glimt Ativo 132 / 137 40% 1 11.11.2026 -
Chukwuemeka Obioma Abia Warriors Ativo 104 / 104 40% 2 06.11.2026 -
Rhian Brewster Derby County Ativo 118 / 126 40% 1 06.11.2026 -
Siyanda Ndlovu Hearts of Oak Ativo 115 / 116 40% 1 04.11.2026 -
Dimitar Mitrovski Olimpija Ljubljana Ativo 112 / 107 40% 1 04.11.2026 -
Maclyn Biokpo Jenewari Rivers United Ativo 102 / 102 40% 1 02.11.2026 -
Paul Glatzel Swindon Town Ativo 96 / 98 40% 2 27.10.2026 -
Yanela Mbuthuma Orlando Pirates Ativo 116 / 100 40% 1 23.10.2026 -
Sunday Megwo Abia Warriors Ativo 90 / 110 40% 2 17.10.2026 -
Robert Mizo Remo Stars Ativo 107 / 101 40% 2 13.10.2026 -
Victor Olatunji Real Salt Lake Ativo 122 / 109 40% 1 13.10.2026 -
Bright Osayi-Samuel Birmingham Ativo 120 / 117 40% 1 08.10.2026 -
Robert Voloder New York Red Bulls Ativo 120 / 119 40% 1 08.10.2026 -
Yeangel Montero Naxxar Lions Ativo 103 / 110 40% 2 07.10.2026 -
Marcel Hartel St. Louis CITY SC Ativo 127 / 133 40% 1 07.10.2026 -
Jaïro Riedewald Sheffield United Ativo 123 / 125 40% 1 07.10.2026 -
Keanu Cupido Mamelodi Sundowns Ativo 125 / 124 40% 1 07.10.2026 -
Jeong Sang-Bin St. Louis CITY SC Ativo 110 / 108 40% 1 03.10.2026 -
Prince Ukachukwu Kano Pillars Ativo 96 / 99 40% 1 03.10.2026 -
Sam Nombe Milton Keynes Dons Ativo 109 / 104 40% 2 30.09.2026 -
Timothy Zechariah Rivers United Ativo 94 / 107 40% 2 18.09.2026 -
Maurice Malone Minnesota United FC Ativo 125 / 128 40% 1 15.09.2026 -
Tashreeq Matthews Mamelodi Sundowns Ativo 108 / 106 40% 1 15.09.2026 -
Miguel Pereira Persebaya Ativo 105 / 119 40% 2 14.09.2026 -
Taisei Miyashiro Seattle Sounders Ativo 119 / 121 40% 1 10.09.2026 -
Fortune Bassey Rivers United Ativo 108 / 91 40% 1 10.09.2026 -
Diadié Samassékou Houston Dynamo Ativo 123 / 114 40% 1 09.09.2026 -
Edvard Tagseth Nashville SC Ativo 111 / 116 40% 1 09.09.2026 -
Oleksandr Svatok Austin FC Ativo 118 / 120 40% 1 09.09.2026 -
Ramiro Ruiz Rodríguez Atlético Tucumán Ativo 114 / 123 40% 1 09.09.2026 -
Nəriman Axundzadə Columbus Crew Ativo 122 / 115 40% 1 08.09.2026 -
Olaniyi Saheed Kwara United Ativo 78 / 100 40% 1 02.08.2026 -
Alfie Massey Millwall Ativo 94 / 104 40% 1 02.08.2026 -
Rabby Nzingoula West Bromwich Albion Ativo 119 / 127 40% 1 02.08.2026 -